Time;durP1;ratioP1;P1;durP2;ratioP2;P2;SDS_P1;SDS_P2;PMS_P1;PMS_P2;Temp;Humidity;BMP_temperature;BMP_pressure;BME280_temperature;BME280_humidity;BME280_pressure;Samples;Min_cycle;Max_cycle;Signal;HPM_P1;HPM_P2
2022/06/11 00:00:52;;;;;;;17.42;9.80;;;;;;;16.71;88.21;102023.25;5051880;28;20048;-69
2022/06/11 00:03:17;;;;;;;13.55;8.80;;;;;;;16.69;87.85;102020.75;5063491;28;20038;-70
2022/06/11 00:05:43;;;;;;;12.52;8.35;;;;;;;16.70;87.54;102024.34;5063546;28;20135;-70
2022/06/11 00:08:09;;;;;;;16.23;9.05;;;;;;;16.67;87.17;102027.59;5063862;28;20029;-70
2022/06/11 00:10:35;;;;;;;13.73;8.70;;;;;;;16.59;88.13;102026.06;5063597;28;20017;-70
2022/06/11 00:13:00;;;;;;;11.63;8.80;;;;;;;16.59;87.04;102023.28;5063392;28;20020;-70
2022/06/11 00:15:26;;;;;;;13.23;8.60;;;;;;;16.60;87.07;102020.25;5063125;28;20056;-70
2022/06/11 00:17:52;;;;;;;14.38;8.73;;;;;;;16.57;86.90;102019.88;5062569;28;20024;-67
2022/06/11 00:20:18;;;;;;;13.30;8.60;;;;;;;16.51;88.17;102024.47;5063962;28;20132;-70
2022/06/11 00:22:44;;;;;;;14.50;8.57;;;;;;;16.52;87.26;102028.09;5045285;28;20027;-69
2022/06/11 00:25:09;;;;;;;14.05;9.18;;;;;;;16.45;87.58;102025.44;5063113;28;20036;-70
2022/06/11 00:27:35;;;;;;;14.95;8.07;;;;;;;16.40;87.63;102027.25;5063255;28;20020;-69
2022/06/11 00:30:00;;;;;;;14.10;8.88;;;;;;;16.35;87.97;102020.50;5062344;28;20073;-69
2022/06/11 00:32:26;;;;;;;12.98;8.43;;;;;;;16.33;88.64;102022.69;5061598;28;20394;-70
2022/06/11 00:34:53;;;;;;;18.17;8.68;;;;;;;16.27;88.47;102018.09;5063213;28;20428;-67
2022/06/11 00:37:20;;;;;;;12.93;8.83;;;;;;;16.23;89.02;102016.06;5063487;28;20121;-69
2022/06/11 00:39:45;;;;;;;15.02;8.88;;;;;;;16.19;88.93;102014.84;5062841;28;20794;-69
2022/06/11 00:42:19;;;;;;;16.67;9.35;;;;;;;16.18;88.89;102015.94;5062587;28;20392;-69
2022/06/11 00:44:45;;;;;;;13.88;8.25;;;;;;;16.09;89.19;102009.88;5062530;28;20025;-69
2022/06/11 00:47:22;;;;;;;17.17;9.50;;;;;;;16.11;89.44;102010.47;5062586;28;20412;-69
2022/06/11 00:49:54;;;;;;;15.15;8.90;;;;;;;16.08;89.24;102010.97;5063647;28;20083;-69
2022/06/11 00:52:25;;;;;;;13.35;8.70;;;;;;;16.04;89.65;102010.59;5063600;28;20031;-69
2022/06/11 00:55:10;;;;;;;13.00;9.30;;;;;;;16.06;89.69;102010.34;5063816;28;20085;-69
2022/06/11 00:57:47;;;;;;;17.95;9.27;;;;;;;16.00;89.62;102008.53;5063291;28;20400;-69
2022/06/11 01:00:18;;;;;;;14.48;8.95;;;;;;;15.98;89.52;102010.72;5061869;28;20059;-69
2022/06/11 01:02:45;;;;;;;14.57;9.30;;;;;;;15.92;90.15;102012.53;5061961;23;20493;-68
2022/06/11 01:05:16;;;;;;;12.55;9.48;;;;;;;15.94;90.04;102009.50;5043049;28;20114;-68
2022/06/11 01:07:50;;;;;;;14.85;9.38;;;;;;;15.90;90.02;102009.13;5043808;28;20125;-68
2022/06/11 01:10:27;;;;;;;14.57;9.57;;;;;;;15.91;90.13;102004.44;5041391;28;20112;-68
2022/06/11 01:13:05;;;;;;;18.20;9.02;;;;;;;15.90;89.97;102009.13;5043027;28;20021;-67
2022/06/11 01:15:38;;;;;;;14.10;8.73;;;;;;;15.90;89.65;102009.13;5042304;28;20436;-67
2022/06/11 01:18:19;;;;;;;19.73;9.00;;;;;;;15.83;89.75;102009.25;5041403;28;20017;-67
2022/06/11 01:21:02;;;;;;;12.40;9.20;;;;;;;15.81;89.78;102002.22;5043296;28;20086;-67
2022/06/11 01:23:33;;;;;;;15.45;8.95;;;;;;;15.83;89.98;102006.47;5043156;28;20029;-67
2022/06/11 01:26:35;;;;;;;15.60;8.35;;;;;;;15.78;90.22;102000.81;5043197;28;20025;-68
2022/06/11 01:29:33;;;;;;;17.88;9.88;;;;;;;15.76;90.09;102008.50;5043882;28;20423;-68
2022/06/11 01:32:40;;;;;;;14.70;8.63;;;;;;;15.78;89.89;102013.81;5046434;28;20403;-68
2022/06/11 01:35:23;;;;;;;15.83;9.07;;;;;;;15.71;90.27;102004.75;5046914;28;20025;-68
2022/06/11 01:37:53;;;;;;;14.77;10.05;;;;;;;15.70;90.48;102005.81;5047495;28;20423;-67
2022/06/11 01:40:44;;;;;;;17.20;10.05;;;;;;;15.72;90.86;102007.28;5047391;28;20053;-67
2022/06/11 01:43:25;;;;;;;16.13;9.50;;;;;;;15.71;91.20;101999.19;5046419;28;20064;-67
2022/06/11 01:45:52;;;;;;;14.98;9.32;;;;;;;15.74;90.78;102001.50;5047300;28;20029;-67
2022/06/11 01:48:22;;;;;;;16.25;8.80;;;;;;;15.73;91.22;102008.13;5046695;28;20103;-67
2022/06/11 01:51:07;;;;;;;15.68;9.63;;;;;;;15.73;90.75;102008.13;5046937;28;20029;-68
2022/06/11 01:53:50;;;;;;;13.85;9.13;;;;;;;15.73;91.20;102008.13;5046588;28;20377;-67
2022/06/11 01:56:40;;;;;;;16.30;9.45;;;;;;;15.72;91.12;102001.75;5046685;28;20413;-67
2022/06/11 01:59:23;;;;;;;12.77;9.40;;;;;;;15.68;90.91;101995.00;5044295;28;20336;-68
2022/06/11 02:02:21;;;;;;;14.13;8.73;;;;;;;15.69;91.30;102002.22;5046025;28;20521;-67
2022/06/11 02:05:05;;;;;;;15.55;9.27;;;;;;;15.63;91.12;102003.16;5046728;28;20078;-67
2022/06/11 02:07:50;;;;;;;15.52;9.20;;;;;;;15.63;91.39;102005.94;5046640;28;20074;-68
2022/06/11 02:11:03;;;;;;;15.75;9.38;;;;;;;15.58;91.15;102000.22;5046456;28;20127;-67
2022/06/11 02:13:38;;;;;;;16.65;9.30;;;;;;;15.50;91.73;101998.63;5035314;28;20063;-68
2022/06/11 02:16:19;;;;;;;15.18;9.25;;;;;;;15.51;91.60;102003.09;5045975;28;20948;-67
2022/06/11 02:18:47;;;;;;;15.85;9.23;;;;;;;15.47;91.79;102010.19;5045824;28;20062;-67
2022/06/11 02:21:17;;;;;;;13.75;9.98;;;;;;;15.49;92.30;101996.94;5046136;28;20108;-67
2022/06/11 02:23:59;;;;;;;16.25;9.30;;;;;;;15.52;91.95;102004.78;5046101;28;20028;-68
2022/06/11 02:26:31;;;;;;;14.63;9.55;;;;;;;15.50;92.71;102001.38;5046087;28;20016;-67
2022/06/11 02:28:59;;;;;;;18.33;10.38;;;;;;;15.47;92.20;102014.88;5044535;28;20367;-67
2022/06/11 02:31:29;;;;;;;18.13;10.10;;;;;;;15.45;92.18;102009.56;5046052;28;20087;-68
2022/06/11 02:33:55;;;;;;;16.75;10.27;;;;;;;15.42;92.55;102006.44;5045440;28;20175;-68
2022/06/11 02:36:28;;;;;;;17.95;10.07;;;;;;;15.38;92.88;102016.28;5046409;28;20036;-67
2022/06/11 02:38:57;;;;;;;15.43;9.80;;;;;;;15.35;92.71;102014.81;5045502;28;20472;-68
2022/06/11 02:41:31;;;;;;;16.30;10.43;;;;;;;15.34;93.21;102018.66;5044757;28;20037;-67
2022/06/11 02:43:57;;;;;;;15.60;10.10;;;;;;;15.31;92.70;102020.00;5044380;28;20029;-68
2022/06/11 02:46:41;;;;;;;15.23;10.07;;;;;;;15.29;93.18;102024.06;5045693;28;20021;-67
2022/06/11 02:49:10;;;;;;;14.30;9.65;;;;;;;15.26;93.15;102021.78;5044047;28;20021;-68
2022/06/11 02:51:36;;;;;;;17.67;10.25;;;;;;;15.22;93.41;102021.38;5045544;28;20503;-68
2022/06/11 02:54:02;;;;;;;16.70;9.95;;;;;;;15.19;93.41;102027.38;5044986;28;20029;-67
2022/06/11 02:56:28;;;;;;;15.15;9.98;;;;;;;15.14;93.40;102032.75;5045590;28;20332;-68
2022/06/11 02:58:54;;;;;;;15.35;10.10;;;;;;;15.11;93.62;102037.94;5044468;28;20029;-67
2022/06/11 03:01:21;;;;;;;15.07;9.65;;;;;;;15.15;93.49;102039.97;5045763;28;20334;-68
2022/06/11 03:03:49;;;;;;;14.38;9.85;;;;;;;15.11;93.90;102041.56;5044759;28;20041;-68
2022/06/11 03:06:14;;;;;;;;;;;;;;;15.18;92.19;102044.22;5045760;28;20344;-68
2022/06/11 03:08:40;;;;;;;13.27;9.40;;;;;;;15.04;93.86;102036.06;5044958;28;20166;-67
2022/06/11 03:11:06;;;;;;;14.10;9.52;;;;;;;15.07;93.45;102034.78;5045067;28;20025;-68
2022/06/11 03:13:31;;;;;;;14.85;9.40;;;;;;;15.05;93.82;102048.84;5044361;28;20051;-68
2022/06/11 03:15:57;;;;;;;14.18;9.05;;;;;;;15.00;93.95;102043.19;5044898;28;20397;-68
2022/06/11 03:18:23;;;;;;;18.48;9.43;;;;;;;15.00;94.15;102043.19;5044800;28;20451;-67
2022/06/11 03:20:50;;;;;;;15.93;9.80;;;;;;;14.98;93.96;102050.84;5045340;28;20113;-67
2022/06/11 03:23:16;;;;;;;14.40;8.60;;;;;;;15.00;93.75;102043.19;5044811;28;20028;-68
2022/06/11 03:25:42;;;;;;;15.57;8.88;;;;;;;15.00;93.56;102054.25;5044966;28;20025;-68
2022/06/11 03:28:15;;;;;;;15.30;9.25;;;;;;;15.00;93.93;102048.72;5043699;28;20374;-68
2022/06/11 03:30:40;;;;;;;14.43;8.25;;;;;;;15.03;93.59;102053.75;5044756;28;20658;-68
2022/06/11 03:33:06;;;;;;;14.05;8.32;;;;;;;15.09;93.52;102053.91;5044165;28;20100;-68
2022/06/11 03:35:32;;;;;;;14.77;8.30;;;;;;;15.13;93.55;102057.91;5044891;28;20059;-68
2022/06/11 03:37:58;;;;;;;12.63;8.10;;;;;;;15.16;93.45;102065.75;5044324;28;20469;-68
2022/06/11 03:40:24;;;;;;;14.32;8.55;;;;;;;15.17;92.98;102060.00;5044344;28;20034;-67
2022/06/11 03:42:50;;;;;;;17.33;8.38;;;;;;;15.19;92.16;102063.34;5044708;28;20033;-67
2022/06/11 03:45:16;;;;;;;11.73;8.63;;;;;;;15.24;93.02;102065.44;5043396;28;20025;-68
2022/06/11 03:47:43;;;;;;;12.90;8.13;;;;;;;15.29;92.50;102073.88;5043917;28;20135;-67
2022/06/11 03:50:15;;;;;;;11.18;7.75;;;;;;;15.31;92.00;102080.06;5044472;28;20032;-67
2022/06/11 03:52:40;;;;;;;12.52;7.60;;;;;;;15.34;91.54;102079.56;5044080;28;20461;-68
2022/06/11 03:55:06;;;;;;;15.27;7.70;;;;;;;15.37;90.88;102078.28;5044030;28;20025;-67
2022/06/11 03:57:32;;;;;;;12.75;7.30;;;;;;;15.39;91.00;102088.03;5044287;28;20024;-68
2022/06/11 03:59:57;;;;;;;17.15;8.20;;;;;;;15.43;90.03;102080.94;5042785;28;20570;-68
2022/06/11 04:02:22;;;;;;;16.85;8.43;;;;;;;15.43;91.21;102092.03;5043757;28;20043;-67
2022/06/11 04:04:48;;;;;;;13.23;6.75;;;;;;;15.46;89.30;102088.78;5044509;28;20028;-68
2022/06/11 04:07:13;;;;;;;10.85;6.35;;;;;;;15.48;88.52;102094.94;5043855;28;20350;-68
2022/06/11 04:09:42;;;;;;;13.88;6.65;;;;;;;15.51;87.92;102090.84;5044291;28;20029;-68
2022/06/11 04:12:11;;;;;;;12.63;7.07;;;;;;;15.52;86.96;102096.16;5043641;28;20021;-68
2022/06/11 04:14:38;;;;;;;13.52;6.15;;;;;;;15.56;87.31;102093.75;5043437;28;20071;-68
2022/06/11 04:17:07;;;;;;;14.10;5.65;;;;;;;15.54;86.74;102099.53;5043032;28;20025;-67
2022/06/11 04:19:36;;;;;;;12.25;5.97;;;;;;;15.54;86.33;102099.53;5043797;28;20025;-68
2022/06/11 04:22:03;;;;;;;11.25;5.80;;;;;;;15.57;85.88;102103.78;5043713;28;20079;-68
2022/06/11 04:24:29;;;;;;;15.23;6.47;;;;;;;15.55;86.09;102098.44;5043622;28;20044;-67
2022/06/11 04:26:57;;;;;;;12.65;5.47;;;;;;;15.54;85.83;102105.06;5043879;28;20037;-68
2022/06/11 04:29:27;;;;;;;11.32;5.28;;;;;;;15.56;84.98;102108.47;5041361;28;20032;-68
2022/06/11 04:31:54;;;;;;;13.30;5.22;;;;;;;15.56;85.12;102105.69;5042730;28;20036;-68
2022/06/11 04:34:20;;;;;;;15.33;5.57;;;;;;;15.60;84.69;102111.59;5043693;28;20100;-68
2022/06/11 04:36:48;;;;;;;13.10;5.50;;;;;;;15.63;84.38;102113.06;5043761;28;20367;-67
2022/06/11 04:39:15;;;;;;;15.00;5.43;;;;;;;15.64;84.33;102109.25;5043231;28;20501;-68
2022/06/11 04:41:41;;;;;;;16.70;5.67;;;;;;;15.65;83.00;102114.53;5041922;28;20017;-68
2022/06/11 04:44:06;;;;;;;13.93;4.60;;;;;;;15.66;80.89;102115.38;5042408;28;20336;-68
2022/06/11 04:46:32;;;;;;;15.20;4.43;;;;;;;15.67;80.00;102112.41;5043341;28;20155;-67
2022/06/11 04:48:59;;;;;;;14.00;4.80;;;;;;;15.69;79.79;102113.00;5042682;28;20429;-67
2022/06/11 04:51:24;;;;;;;13.63;4.40;;;;;;;15.71;78.65;102118.31;5043483;28;20021;-67
2022/06/11 04:53:50;;;;;;;12.32;4.03;;;;;;;15.77;77.79;102117.38;5043623;28;20027;-68
2022/06/11 04:56:19;;;;;;;14.43;4.28;;;;;;;15.75;78.21;102125.06;5043028;28;20508;-68
2022/06/11 04:58:45;;;;;;;20.33;4.75;;;;;;;15.76;78.14;102124.84;5042553;28;20060;-67
2022/06/11 05:01:12;;;;;;;19.42;4.40;;;;;;;15.76;78.32;102118.44;5042982;28;20446;-67
2022/06/11 05:03:38;;;;;;;16.67;4.50;;;;;;;15.76;78.42;102112.91;5041898;28;20612;-68
2022/06/11 05:06:04;;;;;;;14.27;3.83;;;;;;;15.77;77.70;102120.16;5042894;28;20272;-68
2022/06/11 05:08:31;;;;;;;12.93;3.60;;;;;;;15.78;76.25;102119.91;5042909;28;20025;-67
2022/06/11 05:10:56;;;;;;;14.13;4.28;;;;;;;15.83;76.95;102120.06;5042359;28;20033;-67
2022/06/11 05:13:22;;;;;;;13.15;3.90;;;;;;;15.91;76.63;102121.63;5042292;28;20401;-67
2022/06/11 05:15:57;;;;;;;14.48;4.22;;;;;;;15.97;75.05;102119.88;5043048;28;20037;-67
2022/06/11 05:18:23;;;;;;;13.27;3.47;;;;;;;15.97;73.50;102123.50;5042677;28;20547;-67
2022/06/11 05:20:49;;;;;;;12.93;4.00;;;;;;;15.97;73.81;102129.03;5043208;28;20033;-68
2022/06/11 05:23:14;;;;;;;16.48;4.45;;;;;;;15.99;74.01;102124.09;5042809;28;20017;-67
2022/06/11 05:25:41;;;;;;;10.75;3.42;;;;;;;15.98;73.59;102125.19;5043028;28;20359;-67
2022/06/11 05:28:13;;;;;;;14.32;3.67;;;;;;;15.97;73.72;102134.56;5041480;28;20033;-67
2022/06/11 05:30:39;;;;;;;17.25;3.60;;;;;;;15.98;74.00;102132.66;5043052;28;20052;-67
2022/06/11 05:33:04;;;;;;;19.70;3.55;;;;;;;15.94;73.45;102132.25;5042033;28;20455;-67
2022/06/11 05:35:32;;;;;;;15.45;4.00;;;;;;;15.90;74.25;102128.25;5043000;28;20032;-67
2022/06/11 05:38:00;;;;;;;16.05;3.90;;;;;;;15.88;73.97;102129.59;5042373;28;20025;-68
2022/06/11 05:40:29;;;;;;;14.65;3.90;;;;;;;15.87;75.58;102125.13;5042427;28;20495;-68
2022/06/11 05:42:55;;;;;;;16.58;3.63;;;;;;;15.94;73.89;102131.41;5041460;28;20036;-68
2022/06/11 05:45:29;;;;;;;18.08;4.53;;;;;;;16.04;73.58;102126.16;5043075;28;20413;-68
2022/06/11 05:47:56;;;;;;;15.48;3.92;;;;;;;16.19;73.73;102132.09;5057485;28;20041;-68
2022/06/11 05:50:26;;;;;;;15.35;3.45;;;;;;;16.27;72.79;102128.13;5041639;28;20212;-68
2022/06/11 05:52:53;;;;;;;14.45;4.20;;;;;;;16.21;71.95;102137.41;5042202;28;20397;-68
2022/06/11 05:55:22;;;;;;;16.95;3.88;;;;;;;16.22;71.42;102130.78;5042877;28;20025;-68
2022/06/11 05:57:50;;;;;;;16.25;3.83;;;;;;;16.18;72.09;102135.13;5042191;28;20029;-68
2022/06/11 06:00:19;;;;;;;14.23;3.55;;;;;;;16.18;72.46;102144.28;5042563;28;20561;-68
2022/06/11 06:02:45;;;;;;;16.33;4.25;;;;;;;16.16;73.05;102135.34;5042170;28;20110;-68
2022/06/11 06:05:14;;;;;;;16.38;3.83;;;;;;;16.26;73.29;102145.84;5042383;28;20898;-68
2022/06/11 06:07:40;;;;;;;16.00;4.78;;;;;;;16.32;71.94;102143.00;5042350;28;20434;-68
2022/06/11 06:10:06;;;;;;;16.83;4.97;;;;;;;16.43;71.86;102133.00;5042285;28;20025;-68
2022/06/11 06:12:36;;;;;;;18.88;4.20;;;;;;;16.70;70.24;102133.41;5042290;28;20401;-68
2022/06/11 06:15:09;;;;;;;17.38;4.55;;;;;;;16.78;71.91;102141.41;5041455;28;20029;-68
2022/06/11 06:17:35;;;;;;;15.38;3.85;;;;;;;16.86;69.97;102145.72;5045626;28;20120;-68
2022/06/11 06:20:01;;;;;;;19.25;5.15;;;;;;;16.84;69.69;102139.59;5045799;28;20086;-68
2022/06/11 06:22:26;;;;;;;20.88;4.65;;;;;;;16.84;71.77;102150.69;5045655;28;20307;-68
2022/06/11 06:24:51;;;;;;;17.65;4.10;;;;;;;16.90;70.45;102149.72;5044418;28;20109;-68
2022/06/11 06:27:17;;;;;;;21.17;4.30;;;;;;;16.93;70.74;102151.16;5046155;28;20017;-69
2022/06/11 06:29:42;;;;;;;18.00;4.15;;;;;;;17.04;71.54;102151.16;5044972;28;20075;-67
2022/06/11 06:32:08;;;;;;;18.13;4.55;;;;;;;17.14;69.78;102155.28;5045174;28;20070;-68
2022/06/11 06:34:33;;;;;;;23.02;4.93;;;;;;;17.10;71.04;102158.53;5045685;28;20523;-68
2022/06/11 06:36:58;;;;;;;22.17;5.27;;;;;;;17.10;71.23;102157.69;5045476;28;20024;-68
2022/06/11 06:39:23;;;;;;;20.23;4.93;;;;;;;17.05;70.95;102160.34;5045941;28;20765;-67
2022/06/11 06:41:49;;;;;;;23.17;6.10;;;;;;;17.19;71.15;102155.38;5045587;28;20032;-68
2022/06/11 06:44:15;;;;;;;21.42;5.18;;;;;;;17.31;70.01;102167.31;5044476;28;20029;-68
2022/06/11 06:46:41;;;;;;;21.08;4.40;;;;;;;17.42;70.61;102165.59;5044866;28;20021;-68
2022/06/11 06:49:06;;;;;;;22.90;4.22;;;;;;;17.57;69.92;102164.00;5045256;28;20104;-68
2022/06/11 06:51:33;;;;;;;19.13;4.95;;;;;;;17.72;70.54;102162.63;5045824;28;20045;-68
2022/06/11 06:53:58;;;;;;;21.17;4.63;;;;;;;17.78;68.73;102167.22;5045050;28;20041;-68
2022/06/11 06:56:29;;;;;;;16.48;4.47;;;;;;;17.92;67.17;102157.50;5045595;28;20381;-68
2022/06/11 06:58:55;;;;;;;20.13;5.50;;;;;;;17.94;67.11;102169.22;5044353;28;20096;-68
2022/06/11 07:01:20;;;;;;;18.83;4.82;;;;;;;17.92;67.31;102163.06;5045883;28;20151;-69
2022/06/11 07:03:45;;;;;;;21.45;4.53;;;;;;;17.97;69.14;102165.94;5044957;28;20037;-69
2022/06/11 07:06:11;;;;;;;21.52;4.80;;;;;;;18.05;68.63;102160.00;5044789;28;20040;-68
2022/06/11 07:08:37;;;;;;;20.73;4.82;;;;;;;18.06;67.99;102172.81;5045276;28;20025;-68
2022/06/11 07:11:02;;;;;;;21.92;4.80;;;;;;;18.09;68.88;102165.88;5045003;28;20048;-69
2022/06/11 07:13:29;;;;;;;26.83;6.82;;;;;;;18.21;69.02;102160.28;5044195;28;20072;-69
2022/06/11 07:15:56;;;;;;;20.80;5.10;;;;;;;18.25;68.13;102170.66;5044906;28;20064;-68
2022/06/11 07:18:29;;;;;;;22.08;5.07;;;;;;;18.14;68.03;102172.38;5044851;28;20029;-68
2022/06/11 07:20:58;;;;;;;24.10;5.38;;;;;;;18.06;67.63;102161.69;5044641;28;20505;-69
2022/06/11 07:23:38;;;;;;;23.50;5.18;;;;;;;18.09;69.61;102166.72;5044500;28;20029;-70
2022/06/11 07:26:20;;;;;;;25.17;4.85;;;;;;;18.10;68.49;102153.69;5044222;28;20024;-69
2022/06/11 07:28:52;;;;;;;24.90;5.00;;;;;;;18.06;68.74;102150.56;5043918;28;20052;-69
2022/06/11 07:31:18;;;;;;;19.55;5.25;;;;;;;18.24;69.51;102162.56;5044872;28;20024;-69
2022/06/11 07:33:43;;;;;;;19.95;4.68;;;;;;;18.32;68.08;102153.81;5044449;28;20087;-69
2022/06/11 07:36:10;;;;;;;22.25;5.32;;;;;;;18.45;67.66;102159.06;5044710;28;20017;-70
2022/06/11 07:38:36;;;;;;;28.90;5.30;;;;;;;18.56;66.76;102154.53;5044215;28;20033;-69
2022/06/11 07:41:02;;;;;;;21.80;5.40;;;;;;;18.65;66.09;102158.53;5044436;28;20321;-69
2022/06/11 07:43:28;;;;;;;23.77;5.10;;;;;;;18.66;65.26;102163.88;5043382;28;20446;-69
2022/06/11 07:45:53;;;;;;;23.08;5.25;;;;;;;18.62;65.41;102153.50;5044321;28;20080;-69
2022/06/11 07:48:19;;;;;;;23.75;4.47;;;;;;;18.56;64.97;102160.09;5044547;28;20031;-69
2022/06/11 07:50:47;;;;;;;20.08;4.80;;;;;;;18.64;65.27;102156.88;5044521;28;20096;-70
2022/06/11 07:53:13;;;;;;;20.65;4.78;;;;;;;18.73;64.31;102165.69;5044111;28;20120;-70
2022/06/11 07:55:43;;;;;;;23.77;4.70;;;;;;;18.66;65.20;102165.81;5044248;28;20129;-70
2022/06/11 07:58:09;;;;;;;20.88;5.30;;;;;;;18.67;65.33;102167.50;5042798;28;20021;-69
2022/06/11 08:00:39;;;;;;;20.60;4.30;;;;;;;18.72;65.65;102166.78;5044137;28;20049;-70
2022/06/11 08:03:05;;;;;;;17.65;4.28;;;;;;;18.71;65.22;102165.09;5043277;28;20037;-70
2022/06/11 08:05:30;;;;;;;19.05;5.35;;;;;;;18.80;63.07;102160.78;5044080;28;20115;-69
2022/06/11 08:07:56;;;;;;;18.98;4.75;;;;;;;18.90;63.90;102172.06;5043765;28;20105;-69
2022/06/11 08:10:25;;;;;;;21.23;4.93;;;;;;;18.96;63.22;102173.84;5042708;28;20049;-66
2022/06/11 08:12:50;;;;;;;21.00;4.15;;;;;;;18.94;61.32;102159.31;5043408;28;20463;-69
2022/06/11 08:15:16;;;;;;;23.88;5.05;;;;;;;18.99;62.48;102164.97;5044530;28;20017;-69
2022/06/11 08:17:41;;;;;;;24.20;5.22;;;;;;;19.14;63.47;102178.28;5043600;28;20060;-70
2022/06/11 08:20:09;;;;;;;23.08;4.82;;;;;;;19.21;61.27;102178.97;5043543;28;20377;-70
2022/06/11 08:22:35;;;;;;;22.80;4.55;;;;;;;19.32;61.89;102189.16;5043918;28;20032;-70
2022/06/11 08:25:01;;;;;;;23.27;5.18;;;;;;;19.29;62.79;102186.03;5043113;28;20017;-70
2022/06/11 08:27:26;;;;;;;20.08;4.97;;;;;;;19.40;63.35;102182.28;5041435;28;20035;-70
2022/06/11 08:29:52;;;;;;;19.25;4.57;;;;;;;19.68;62.09;102184.94;5043696;28;20021;-70
2022/06/11 08:32:17;;;;;;;22.02;4.63;;;;;;;20.10;61.29;102180.69;5043709;28;20538;-70
2022/06/11 08:34:45;;;;;;;25.55;4.88;;;;;;;20.29;57.87;102192.31;5043853;28;20103;-70
2022/06/11 08:37:11;;;;;;;20.33;4.32;;;;;;;20.17;57.44;102184.97;5043009;28;20457;-70
2022/06/11 08:39:36;;;;;;;21.55;4.68;;;;;;;20.11;58.20;102193.50;5043081;28;20035;-70
2022/06/11 08:42:03;;;;;;;22.25;4.30;;;;;;;20.13;58.15;102199.69;5042763;28;20044;-71
2022/06/11 08:44:32;;;;;;;24.95;5.10;;;;;;;20.23;58.38;102193.38;5042828;28;20040;-70
2022/06/11 08:47:03;;;;;;;21.98;4.85;;;;;;;20.41;58.77;102191.03;5042755;28;20483;-70
2022/06/11 08:49:37;;;;;;;22.75;5.35;;;;;;;20.53;57.99;102190.94;5043713;28;20254;-70
2022/06/11 08:52:19;;;;;;;21.13;4.43;;;;;;;20.66;57.13;102196.06;5042843;28;20033;-70
2022/06/11 08:54:47;;;;;;;22.48;4.60;;;;;;;20.64;56.45;102189.91;5043548;28;20610;-70
2022/06/11 08:57:15;;;;;;;29.05;4.82;;;;;;;20.76;58.04;102191.66;5042473;28;20082;-70
2022/06/11 09:00:03;;;;;;;22.85;4.40;;;;;;;20.84;58.68;102194.81;5043396;28;20029;-71
2022/06/11 09:02:47;;;;;;;18.35;5.55;;;;;;;20.75;57.06;102196.41;5042391;28;20060;-70
2022/06/11 09:05:40;;;;;;;20.50;4.90;;;;;;;20.47;57.44;102197.53;5042853;28;20032;-71
2022/06/11 09:08:26;;;;;;;21.92;4.88;;;;;;;20.32;57.88;102186.19;5042970;28;20477;-70
2022/06/11 09:11:08;;;;;;;22.90;5.13;;;;;;;20.43;58.69;102190.81;5043029;28;20044;-71
2022/06/11 09:13:52;;;;;;;20.27;4.55;;;;;;;20.47;59.47;102187.22;5042157;28;20549;-70
2022/06/11 09:16:52;;;;;;;18.85;4.20;;;;;;;20.86;59.07;102191.75;5043561;28;20405;-70
2022/06/11 09:19:36;;;;;;;23.65;4.90;;;;;;;21.24;56.76;102183.09;5043487;28;20064;-70
2022/06/11 09:22:29;;;;;;;23.42;4.97;;;;;;;21.49;57.82;102189.94;5042720;28;20426;-71
2022/06/11 09:24:54;;;;;;;23.00;5.68;;;;;;;21.69;57.62;102192.84;5042757;28;20039;-70
2022/06/11 09:27:19;;;;;;;22.63;4.80;;;;;;;21.86;54.68;102187.06;5043028;28;20029;-70
2022/06/11 09:30:00;;;;;;;18.00;4.80;;;;;;;22.01;55.94;102189.06;5042799;28;20047;-70
2022/06/11 09:32:52;;;;;;;26.25;5.15;;;;;;;22.01;55.00;102189.06;5042812;28;20278;-71
2022/06/11 09:35:39;;;;;;;19.42;4.95;;;;;;;22.10;54.78;102192.16;5043425;28;20492;-71
2022/06/11 09:38:21;;;;;;;22.15;5.57;;;;;;;22.94;51.74;102199.31;5042721;28;20583;-70
2022/06/11 09:40:53;;;;;;;23.30;5.45;;;;;;;23.00;51.52;102196.22;5043022;28;20036;-70
2022/06/11 09:43:34;;;;;;;19.92;4.53;;;;;;;24.03;49.32;102197.63;5042685;28;20041;-71
2022/06/11 09:46:24;;;;;;;21.65;4.65;;;;;;;25.93;46.26;102199.59;5043000;28;20159;-70
2022/06/11 09:49:26;;;;;;;18.52;4.32;;;;;;;28.04;42.29;102193.69;5042649;28;20107;-71
2022/06/11 09:51:58;;;;;;;18.27;4.75;;;;;;;29.06;39.40;102199.72;5045973;28;20033;-71
2022/06/11 09:54:51;;;;;;;23.05;4.45;;;;;;;30.47;36.54;102199.53;5046836;28;20369;-71
2022/06/11 09:57:34;;;;;;;21.80;4.28;;;;;;;30.97;36.10;102201.00;5046061;28;20436;-72
2022/06/11 10:00:15;;;;;;;15.57;3.83;;;;;;;30.34;34.39;102196.84;5046043;28;20382;-72
2022/06/11 10:03:02;;;;;;;21.50;4.25;;;;;;;28.98;38.15;102203.31;5045828;28;20386;-72
2022/06/11 10:05:41;;;;;;;19.85;4.40;;;;;;;29.73;36.85;102191.88;5046407;28;20025;-72
2022/06/11 10:08:18;;;;;;;19.65;4.65;;;;;;;30.88;34.04;102201.03;5045811;28;20170;-72
2022/06/11 10:10:47;;;;;;;23.63;5.03;;;;;;;29.57;34.54;102195.50;5046460;28;20074;-72
2022/06/11 10:13:33;;;;;;;19.85;5.00;;;;;;;28.60;38.40;102192.38;5045199;28;20025;-72
2022/06/11 10:16:08;;;;;;;19.52;4.85;;;;;;;29.64;36.57;102190.19;5044486;28;20028;-72
2022/06/11 10:18:38;;;;;;;21.33;5.05;;;;;;;29.92;35.94;102188.78;5045774;28;20077;-73
2022/06/11 10:21:10;;;;;;;23.10;5.10;;;;;;;30.38;34.09;102198.69;5045783;28;20047;-73
2022/06/11 10:23:48;;;;;;;23.75;5.00;;;;;;;30.65;33.97;102196.69;5045964;28;20021;-74
2022/06/11 10:26:46;;;;;;;;;;;;;;;31.05;36.11;102210.66;5044616;28;20025;-72
2022/06/11 10:29:29;;;;;;;18.27;4.68;;;;;;;31.25;33.62;102202.25;5010798;28;20186;-73
2022/06/11 10:32:02;;;;;;;19.20;4.18;;;;;;;31.69;33.98;102204.94;5045041;28;20575;-72
2022/06/11 10:34:29;;;;;;;19.48;4.32;;;;;;;31.57;31.26;102202.00;5045654;28;20571;-73
2022/06/11 10:36:59;;;;;;;19.10;4.63;;;;;;;31.01;33.88;102205.66;5045735;28;20043;-73
2022/06/11 10:39:42;;;;;;;16.75;4.18;;;;;;;30.08;35.32;102193.97;5045602;28;20097;-75
2022/06/11 10:42:35;;;;;;;19.05;4.07;;;;;;;29.03;34.64;102203.19;5044831;28;20058;-74
2022/06/11 10:45:01;;;;;;;19.05;4.05;;;;;;;27.69;36.87;102201.75;5045377;28;20527;-73
2022/06/11 10:47:39;;;;;;;20.90;3.78;;;;;;;26.49;39.57;102198.81;5044949;28;20029;-72
2022/06/11 10:50:11;;;;;;;;;;;;;;;26.54;41.64;102198.75;5046109;28;20111;-73
2022/06/11 10:52:51;;;;;;;19.42;4.30;;;;;;;25.79;40.77;102189.06;5045101;28;20011;-73
2022/06/11 10:55:27;;;;;;;19.50;4.43;;;;;;;25.28;41.61;102189.66;5045643;28;20096;-74
2022/06/11 10:57:54;;;;;;;20.15;4.30;;;;;;;25.25;42.41;102190.25;5044628;28;20036;-72
2022/06/11 11:00:30;;;;;;;18.23;4.28;;;;;;;25.10;42.31;102198.84;5045859;28;20025;-73
2022/06/11 11:03:01;;;;;;;15.75;3.40;;;;;;;25.04;46.33;102191.53;5044152;28;20045;-73
2022/06/11 11:05:44;;;;;;;16.42;3.80;;;;;;;25.07;44.87;102193.81;5045402;28;20352;-74
2022/06/11 11:08:11;;;;;;;15.90;3.75;;;;;;;24.99;43.90;102194.41;5045297;28;20017;-73
2022/06/11 11:10:36;;;;;;;16.03;4.17;;;;;;;25.18;44.76;102191.72;5045081;28;20025;-73
2022/06/11 11:13:25;;;;;;;16.47;4.17;;;;;;;25.12;43.59;102199.38;5044353;28;20798;-74
2022/06/11 11:16:08;;;;;;;16.98;4.78;;;;;;;25.12;44.11;102190.94;5045053;28;20287;-73
2022/06/11 11:18:40;;;;;;;16.63;3.80;;;;;;;25.23;44.11;102180.44;5044980;28;20430;-74
2022/06/11 11:21:16;;;;;;;21.98;4.72;;;;;;;25.46;44.28;102178.78;5044973;28;20363;-74
2022/06/11 11:23:42;;;;;;;20.17;4.40;;;;;;;25.36;42.96;102176.91;5045174;28;20311;-74
2022/06/11 11:26:28;;;;;;;16.40;4.72;;;;;;;25.29;43.62;102166.03;5044877;28;20013;-73
2022/06/11 11:28:56;;;;;;;17.67;4.57;;;;;;;25.23;45.40;102174.81;5044105;28;20099;-73
2022/06/11 11:31:25;;;;;;;18.92;4.25;;;;;;;25.16;42.84;102179.97;5045344;28;20028;-73
2022/06/11 11:34:10;;;;;;;15.10;3.95;;;;;;;25.24;46.24;102177.34;5044700;28;20020;-74
2022/06/11 11:36:36;;;;;;;15.60;3.88;;;;;;;25.12;42.73;102176.88;5045021;28;20348;-73